createdAt,value
2023-05-02T00:00:59.153Z,77.28
2023-05-02T00:03:26.426Z,77.58
2023-05-02T00:05:53.649Z,78.38
2023-05-02T00:08:20.544Z,78.01
2023-05-02T00:10:47.625Z,77.95
2023-05-02T00:13:14.552Z,78.37
2023-05-02T00:16:00.203Z,78.03
2023-05-02T00:18:27.507Z,78.30
2023-05-02T00:20:56.481Z,78.27
2023-05-02T00:23:24.127Z,78.11
2023-05-02T00:25:51.086Z,78.40
2023-05-02T00:28:18.737Z,78.46
2023-05-02T00:30:47.210Z,78.56
2023-05-02T00:33:15.323Z,78.27
2023-05-02T00:35:42.586Z,78.38
2023-05-02T00:38:09.742Z,78.43
2023-05-02T00:40:47.937Z,78.12
2023-05-02T00:43:16.311Z,77.97
2023-05-02T00:45:44.711Z,78.60
2023-05-02T00:48:12.510Z,78.39
2023-05-02T00:50:42.258Z,78.35
2023-05-02T00:53:10.980Z,78.12
2023-05-02T00:55:38.516Z,78.26
2023-05-02T00:58:11.780Z,77.71
2023-05-02T01:01:10.711Z,77.86
2023-05-02T01:04:13.097Z,77.56
2023-05-02T01:06:59.555Z,78.12
2023-05-02T01:09:34.184Z,78.50
2023-05-02T01:12:24.273Z,78.83
2023-05-02T01:14:57.383Z,78.60
2023-05-02T01:17:30.587Z,78.80
2023-05-02T01:20:00.228Z,78.64
2023-05-02T01:22:30.209Z,78.99
2023-05-02T01:25:35.111Z,78.93
2023-05-02T01:28:17.213Z,79.07
2023-05-02T01:30:47.314Z,79.15
2023-05-02T01:33:17.589Z,79.52
2023-05-02T01:35:49.799Z,79.71
2023-05-02T01:38:19.135Z,79.55
2023-05-02T01:40:47.691Z,79.25
2023-05-02T01:43:16.848Z,79.38
2023-05-02T01:45:47.540Z,79.68
2023-05-02T01:48:16.329Z,79.78
2023-05-02T01:50:45.859Z,79.25
2023-05-02T01:53:14.717Z,79.56
2023-05-02T01:55:45.619Z,80.12
2023-05-02T01:58:15.305Z,80.31
2023-05-02T02:00:45.429Z,80.05
2023-05-02T02:03:14.526Z,80.15
2023-05-02T02:05:42.592Z,80.15
2023-05-02T02:08:09.731Z,80.05
2023-05-02T02:10:43.265Z,80.42
2023-05-02T02:13:30.599Z,80.67
2023-05-02T02:16:02.132Z,80.69
2023-05-02T02:18:32.572Z,81.00
2023-05-02T02:21:01.132Z,81.20
2023-05-02T02:23:30.271Z,81.66
2023-05-02T02:25:57.595Z,81.44
2023-05-02T02:28:24.541Z,82.00
2023-05-02T02:30:51.660Z,82.20
2023-05-02T02:33:19.739Z,82.55
2023-05-02T02:36:07.136Z,82.67
2023-05-02T02:38:50.543Z,82.90
2023-05-02T02:41:28.254Z,82.87
2023-05-02T02:44:13.863Z,83.50
2023-05-02T02:46:44.047Z,83.52
2023-05-02T02:49:29.330Z,83.37
2023-05-02T02:52:32.773Z,83.22
2023-05-02T02:55:09.479Z,83.15
2023-05-02T02:57:55.465Z,84.18
2023-05-02T03:00:25.980Z,84.69
2023-05-02T03:02:54.618Z,84.77
2023-05-02T03:05:23.041Z,85.04
2023-05-02T03:07:51.225Z,84.95
2023-05-02T03:10:19.462Z,85.15
2023-05-02T03:12:47.593Z,84.68
2023-05-02T03:15:49.984Z,84.87
2023-05-02T03:18:19.761Z,84.86
2023-05-02T03:20:46.933Z,84.97
2023-05-02T03:23:14.294Z,84.98
2023-05-02T03:25:41.883Z,85.12
2023-05-02T03:28:12.374Z,84.91
2023-05-02T03:30:41.999Z,85.10
2023-05-02T03:33:09.230Z,85.20
2023-05-02T03:35:37.415Z,85.67
2023-05-02T03:38:04.288Z,85.27
2023-05-02T03:40:31.345Z,85.33
2023-05-02T03:42:58.686Z,85.45
2023-05-02T03:45:31.690Z,85.20
2023-05-02T03:47:59.728Z,84.95
2023-05-02T03:50:27.895Z,84.85
2023-05-02T03:52:56.138Z,84.26
2023-05-02T03:55:32.262Z,83.13
2023-05-02T03:57:59.880Z,82.96
2023-05-02T04:00:26.795Z,82.19
2023-05-02T04:03:03.581Z,82.24
2023-05-02T04:05:33.039Z,81.60
2023-05-02T04:08:01.273Z,81.43
2023-05-02T04:10:28.183Z,81.00
2023-05-02T04:12:58.855Z,80.61
2023-05-02T04:15:26.368Z,79.59
2023-05-02T04:17:54.418Z,78.98
2023-05-02T04:20:21.626Z,78.52
2023-05-02T04:22:51.306Z,78.03
2023-05-02T04:25:18.542Z,77.64
2023-05-02T04:27:47.326Z,77.83
2023-05-02T04:30:18.262Z,77.31
2023-05-02T04:32:53.986Z,77.11
2023-05-02T04:35:21.610Z,76.33
2023-05-02T04:37:49.124Z,75.75
2023-05-02T04:40:17.643Z,74.87
2023-05-02T04:42:47.486Z,74.45
2023-05-02T04:45:17.857Z,73.59
2023-05-02T04:47:46.049Z,73.16
2023-05-02T04:50:13.050Z,73.14
2023-05-02T04:52:41.414Z,73.30
2023-05-02T04:55:09.218Z,72.63
2023-05-02T04:57:37.289Z,71.41
2023-05-02T05:00:05.648Z,71.28
2023-05-02T05:02:35.328Z,71.34
2023-05-02T05:05:03.286Z,70.48
2023-05-02T05:07:31.492Z,69.95
2023-05-02T05:09:59.309Z,70.69
2023-05-02T05:12:30.982Z,70.32
2023-05-02T05:14:58.497Z,69.55
2023-05-02T05:17:27.571Z,69.39
2023-05-02T05:19:54.852Z,68.74
2023-05-02T05:22:22.279Z,68.59
2023-05-02T05:24:53.968Z,68.50
2023-05-02T05:27:22.886Z,68.30
2023-05-02T05:29:50.190Z,67.36
2023-05-02T05:32:17.776Z,67.10
2023-05-02T05:34:45.572Z,67.68
2023-05-02T05:37:13.568Z,66.93
2023-05-02T05:39:41.634Z,66.33
2023-05-02T05:42:09.985Z,66.10
2023-05-02T05:44:39.733Z,65.74
2023-05-02T05:47:06.678Z,65.60
2023-05-02T05:49:38.496Z,65.59
2023-05-02T05:52:08.293Z,65.38
2023-05-02T05:54:36.114Z,65.36
2023-05-02T05:57:03.691Z,64.51
2023-05-02T05:59:30.978Z,64.30
2023-05-02T06:01:59.506Z,64.14
2023-05-02T06:04:27.062Z,63.76
2023-05-02T06:06:54.773Z,63.48
2023-05-02T06:09:22.303Z,63.00
2023-05-02T06:11:49.653Z,63.20
2023-05-02T06:14:16.874Z,63.17
2023-05-02T06:16:46.090Z,62.15
2023-05-02T06:19:13.366Z,62.41
2023-05-02T06:21:40.389Z,61.74
2023-05-02T06:24:07.310Z,61.39
2023-05-02T06:26:34.739Z,60.91
2023-05-02T06:29:02.622Z,60.40
2023-05-02T06:31:29.801Z,60.36
2023-05-02T06:33:56.962Z,59.69
2023-05-02T06:36:24.063Z,59.59
2023-05-02T06:38:50.945Z,59.20
2023-05-02T06:41:18.449Z,59.11
2023-05-02T06:43:45.447Z,58.30
2023-05-02T06:46:12.633Z,57.92
2023-05-02T06:48:39.478Z,57.40
2023-05-02T06:51:06.592Z,57.92
2023-05-02T06:53:33.586Z,57.04
2023-05-02T06:56:00.979Z,57.41
2023-05-02T06:58:28.009Z,57.11
2023-05-02T07:00:54.896Z,57.03
2023-05-02T07:03:22.152Z,55.42
2023-05-02T07:05:49.219Z,55.23
2023-05-02T07:08:16.252Z,55.66
2023-05-02T07:10:43.264Z,54.69
2023-05-02T07:13:10.221Z,54.75
2023-05-02T07:15:37.092Z,53.67
2023-05-02T07:18:04.282Z,53.86
2023-05-02T07:20:31.265Z,52.93
2023-05-02T07:22:58.481Z,51.87
2023-05-02T07:25:25.754Z,51.98
2023-05-02T07:27:52.880Z,51.35
2023-05-02T07:30:19.758Z,51.02
2023-05-02T07:32:46.770Z,50.33
2023-05-02T07:35:13.757Z,50.50
2023-05-02T07:37:40.818Z,50.42
2023-05-02T07:40:09.431Z,50.62
2023-05-02T07:42:36.735Z,49.97
2023-05-02T07:45:04.193Z,49.90
2023-05-02T07:47:34.866Z,49.47
2023-05-02T07:50:04.619Z,49.44
2023-05-02T07:52:33.271Z,49.24
2023-05-02T07:55:00.454Z,48.94
2023-05-02T07:57:27.670Z,48.50
2023-05-02T07:59:57.268Z,48.99
2023-05-02T08:02:26.167Z,47.93
2023-05-02T08:04:54.496Z,47.65
2023-05-02T08:07:21.820Z,47.36
2023-05-02T08:09:48.768Z,47.27
2023-05-02T08:12:16.084Z,47.19
2023-05-02T08:14:43.019Z,47.19
2023-05-02T08:17:10.419Z,46.55
2023-05-02T08:19:37.266Z,46.69
2023-05-02T08:22:04.252Z,44.94
2023-05-02T08:24:31.396Z,45.54
2023-05-02T08:26:58.463Z,44.58
2023-05-02T08:29:25.544Z,48.27
2023-05-02T08:31:52.762Z,45.22
2023-05-02T08:34:19.728Z,44.80
2023-05-02T08:36:47.419Z,44.91
2023-05-02T08:39:14.480Z,44.32
2023-05-02T08:41:41.751Z,42.96
2023-05-02T08:44:09.040Z,43.19
2023-05-02T08:46:36.787Z,44.73
2023-05-02T08:49:03.817Z,42.86
2023-05-02T08:51:32.813Z,43.06
2023-05-02T08:54:03.520Z,43.36
2023-05-02T08:56:30.837Z,41.47
2023-05-02T08:58:58.941Z,41.52
2023-05-02T09:01:33.579Z,41.14
2023-05-02T09:04:00.857Z,40.67
2023-05-02T09:06:29.323Z,40.81
2023-05-02T09:09:00.369Z,41.00
2023-05-02T09:11:27.730Z,40.75
2023-05-02T09:13:54.919Z,40.57
2023-05-02T09:16:27.288Z,41.48
2023-05-02T09:18:57.634Z,40.98
2023-05-02T09:21:27.388Z,42.08
2023-05-02T09:24:00.863Z,40.15
2023-05-02T09:26:32.458Z,40.31
2023-05-02T09:29:02.244Z,40.33
2023-05-02T09:31:54.045Z,40.62
2023-05-02T09:34:21.337Z,39.23
2023-05-02T09:36:51.983Z,38.76
2023-05-02T09:39:30.268Z,39.64
2023-05-02T09:41:58.749Z,39.03
2023-05-02T09:44:27.803Z,37.63
2023-05-02T09:46:57.505Z,38.17
2023-05-02T09:49:44.964Z,38.39
2023-05-02T09:52:17.997Z,37.82
2023-05-02T09:54:46.750Z,36.03
2023-05-02T09:57:14.128Z,37.17
2023-05-02T09:59:41.629Z,36.10
2023-05-02T10:02:11.601Z,35.89
2023-05-02T10:04:40.020Z,36.38
2023-05-02T10:07:10.421Z,36.20
2023-05-02T10:09:43.173Z,35.19
2023-05-02T10:12:10.451Z,35.09
2023-05-02T10:14:44.237Z,34.94
2023-05-02T10:17:21.525Z,34.73
2023-05-02T10:19:56.943Z,35.57
2023-05-02T10:22:25.280Z,35.15
2023-05-02T10:24:53.425Z,35.08
2023-05-02T10:27:21.044Z,35.09
2023-05-02T10:29:48.654Z,35.41
2023-05-02T10:32:18.470Z,34.43
2023-05-02T10:34:47.673Z,35.74
2023-05-02T10:37:16.339Z,35.14
2023-05-02T10:39:43.687Z,35.84
2023-05-02T10:42:11.133Z,34.72
2023-05-02T10:44:41.537Z,34.48
2023-05-02T10:47:27.343Z,35.09
2023-05-02T10:50:00.780Z,35.12
2023-05-02T10:52:38.677Z,34.62
2023-05-02T10:55:16.414Z,35.19
2023-05-02T10:58:00.046Z,35.75
2023-05-02T11:00:32.618Z,36.47
2023-05-02T11:03:00.831Z,33.76
2023-05-02T11:05:28.421Z,34.00
2023-05-02T11:08:20.217Z,34.31
2023-05-02T11:10:48.226Z,35.08
2023-05-02T11:13:15.674Z,34.05
2023-05-02T11:15:43.778Z,35.08
2023-05-02T11:18:12.928Z,35.02
2023-05-02T11:20:45.412Z,34.67
2023-05-02T11:23:36.920Z,34.99
2023-05-02T11:26:22.295Z,33.93
2023-05-02T11:28:49.513Z,33.94
2023-05-02T11:31:36.790Z,34.21
2023-05-02T11:34:04.623Z,34.27
2023-05-02T11:36:33.715Z,33.42
2023-05-02T11:39:03.543Z,33.76
2023-05-02T11:41:40.687Z,34.97
2023-05-02T11:44:07.775Z,34.14
2023-05-02T11:46:39.568Z,33.78
2023-05-02T11:49:14.785Z,33.80
2023-05-02T11:51:42.582Z,33.85
2023-05-02T11:54:10.326Z,33.28
2023-05-02T11:56:37.534Z,33.17
2023-05-02T11:59:05.037Z,34.18
2023-05-02T12:01:32.387Z,33.86
2023-05-02T12:04:07.739Z,33.80
2023-05-02T12:06:35.570Z,33.68
2023-05-02T12:09:17.157Z,34.13
2023-05-02T12:11:45.205Z,34.81
2023-05-02T12:14:12.760Z,33.99
2023-05-02T12:16:42.168Z,34.31
2023-05-02T12:19:09.211Z,34.11
2023-05-02T12:21:36.298Z,34.49
2023-05-02T12:24:03.738Z,34.05
2023-05-02T12:26:33.090Z,33.76
2023-05-02T12:29:02.134Z,32.94
2023-05-02T12:31:31.479Z,33.29
2023-05-02T12:34:00.358Z,33.76
2023-05-02T12:36:30.912Z,33.39
2023-05-02T12:38:59.830Z,32.87
2023-05-02T12:41:34.520Z,32.16
2023-05-02T12:44:02.224Z,32.85
2023-05-02T12:46:31.371Z,32.65
2023-05-02T12:49:05.754Z,31.87
2023-05-02T12:51:34.360Z,31.86
2023-05-02T12:54:01.453Z,31.62
2023-05-02T12:56:32.643Z,31.95
2023-05-02T12:59:01.655Z,31.58
2023-05-02T13:01:30.008Z,31.70
2023-05-02T13:03:57.076Z,32.03
2023-05-02T13:06:24.331Z,32.44
2023-05-02T13:08:51.246Z,32.00
2023-05-02T13:11:19.458Z,31.96
2023-05-02T13:13:46.670Z,32.75
2023-05-02T13:16:13.863Z,32.80
2023-05-02T13:18:41.207Z,32.40
2023-05-02T13:21:08.688Z,32.64
2023-05-02T13:23:36.645Z,32.65
2023-05-02T13:26:04.279Z,32.86
2023-05-02T13:28:33.348Z,32.56
2023-05-02T13:31:00.756Z,32.60
2023-05-02T13:33:27.803Z,31.76
2023-05-02T13:35:56.492Z,31.88
2023-05-02T13:38:23.625Z,32.06
2023-05-02T13:40:50.860Z,32.08
2023-05-02T13:43:17.936Z,32.11
2023-05-02T13:45:47.393Z,32.06
2023-05-02T13:48:15.641Z,32.22
2023-05-02T13:50:42.469Z,31.83
2023-05-02T13:53:09.659Z,32.05
2023-05-02T13:55:38.545Z,31.72
2023-05-02T13:58:06.335Z,31.77
2023-05-02T14:00:33.366Z,32.15
2023-05-02T14:03:00.749Z,31.58
2023-05-02T14:05:27.812Z,32.31
2023-05-02T14:07:54.963Z,32.37
2023-05-02T14:10:21.909Z,32.32
2023-05-02T14:12:49.400Z,32.17
2023-05-02T14:15:16.313Z,32.39
2023-05-02T14:17:43.350Z,31.63
2023-05-02T14:20:10.982Z,31.74
2023-05-02T14:22:38.282Z,32.03
2023-05-02T14:25:06.013Z,31.92
2023-05-02T14:27:33.390Z,31.98
2023-05-02T14:30:00.920Z,32.06
2023-05-02T14:32:31.095Z,32.18
2023-05-02T14:34:58.163Z,31.66
2023-05-02T14:37:25.310Z,31.84
2023-05-02T14:39:56.069Z,32.01
2023-05-02T14:42:23.424Z,32.00
2023-05-02T14:44:50.327Z,32.32
2023-05-02T14:47:18.165Z,32.08
2023-05-02T14:49:45.121Z,32.54
2023-05-02T14:52:12.280Z,31.95
2023-05-02T14:54:39.226Z,32.12
2023-05-02T14:57:07.099Z,32.32
2023-05-02T14:59:36.029Z,31.86
2023-05-02T15:02:03.320Z,31.66
2023-05-02T15:04:31.110Z,32.71
2023-05-02T15:06:59.771Z,32.31
2023-05-02T15:09:27.194Z,31.78
2023-05-02T15:11:54.238Z,33.06
2023-05-02T15:14:21.483Z,32.20
2023-05-02T15:16:48.833Z,31.69
2023-05-02T15:19:15.683Z,31.96
2023-05-02T15:21:42.639Z,32.96
2023-05-02T15:24:10.705Z,32.28
2023-05-02T15:26:40.382Z,32.79
2023-05-02T15:29:07.700Z,32.18
2023-05-02T15:31:34.904Z,32.44
2023-05-02T15:34:02.093Z,32.53
2023-05-02T15:36:30.503Z,32.30
2023-05-02T15:38:57.691Z,31.01
2023-05-02T15:41:27.632Z,30.31
2023-05-02T15:43:54.971Z,29.15
2023-05-02T15:46:22.208Z,29.10
2023-05-02T15:48:49.830Z,29.71
2023-05-02T15:51:17.350Z,29.32
2023-05-02T15:53:47.897Z,29.19
2023-05-02T15:56:14.796Z,28.36
2023-05-02T15:58:41.951Z,27.29
2023-05-02T16:01:09.657Z,26.76
2023-05-02T16:03:37.214Z,26.53
2023-05-02T16:06:07.644Z,25.94
2023-05-02T16:08:35.162Z,25.84
2023-05-02T16:11:02.146Z,24.97
2023-05-02T16:13:30.320Z,24.85
2023-05-02T16:15:57.570Z,24.75
2023-05-02T16:18:28.272Z,25.87
2023-05-02T16:20:57.237Z,25.63
2023-05-02T16:23:25.859Z,25.90
2023-05-02T16:26:00.762Z,26.27
2023-05-02T16:28:28.379Z,26.22
2023-05-02T16:30:55.672Z,25.89
2023-05-02T16:33:23.103Z,26.08
2023-05-02T16:35:59.617Z,26.84
2023-05-02T16:38:26.812Z,27.24
2023-05-02T16:40:53.758Z,27.14
2023-05-02T16:43:21.107Z,27.01
2023-05-02T16:45:48.097Z,27.68
2023-05-02T16:48:15.671Z,28.97
2023-05-02T16:50:42.869Z,30.47
2023-05-02T16:53:09.984Z,31.08
2023-05-02T16:55:36.957Z,31.64
2023-05-02T16:58:04.170Z,32.61
2023-05-02T17:00:31.155Z,32.47
2023-05-02T17:02:58.580Z,33.18
2023-05-02T17:05:26.173Z,33.56
2023-05-02T17:07:54.598Z,34.07
2023-05-02T17:10:21.574Z,34.73
2023-05-02T17:12:48.671Z,34.30
2023-05-02T17:15:16.052Z,35.02
2023-05-02T17:17:43.789Z,35.06
2023-05-02T17:20:11.701Z,35.72
2023-05-02T17:22:39.280Z,35.54
2023-05-02T17:25:06.961Z,35.88
2023-05-02T17:27:34.230Z,36.14
2023-05-02T17:30:01.457Z,35.68
2023-05-02T17:32:34.911Z,36.12
2023-05-02T17:35:02.166Z,36.47
2023-05-02T17:37:32.996Z,38.36
2023-05-02T17:40:02.271Z,36.69
2023-05-02T17:42:31.552Z,36.79
2023-05-02T17:44:58.595Z,38.53
2023-05-02T17:47:25.763Z,37.12
2023-05-02T17:49:53.912Z,37.48
2023-05-02T17:52:21.583Z,37.59
2023-05-02T17:54:48.649Z,38.18
2023-05-02T17:57:16.142Z,38.37
2023-05-02T17:59:43.377Z,38.44
2023-05-02T18:02:10.572Z,38.60
2023-05-02T18:04:37.771Z,38.69
2023-05-02T18:07:06.182Z,39.59
2023-05-02T18:09:33.835Z,39.55
2023-05-02T18:12:03.732Z,39.60
2023-05-02T18:14:30.709Z,39.86
2023-05-02T18:16:57.781Z,40.34
2023-05-02T18:19:25.010Z,40.41
2023-05-02T18:21:52.541Z,40.62
2023-05-02T18:24:19.573Z,40.43
2023-05-02T18:26:48.595Z,40.76
2023-05-02T18:29:15.812Z,40.76
2023-05-02T18:31:42.950Z,40.96
2023-05-02T18:34:10.119Z,41.41
2023-05-02T18:36:37.064Z,41.30
2023-05-02T18:39:04.047Z,41.96
2023-05-02T18:41:31.001Z,41.91
2023-05-02T18:43:59.384Z,42.05
2023-05-02T18:46:27.900Z,41.98
2023-05-02T18:48:54.881Z,42.20
2023-05-02T18:51:22.635Z,42.63
2023-05-02T18:53:49.769Z,42.63
2023-05-02T18:56:17.250Z,42.46
2023-05-02T18:58:44.191Z,42.49
2023-05-02T19:01:13.200Z,42.82
2023-05-02T19:03:40.392Z,43.19
2023-05-02T19:06:07.544Z,43.31
2023-05-02T19:08:34.426Z,43.31
2023-05-02T19:11:01.644Z,43.12
2023-05-02T19:13:28.637Z,43.02
2023-05-02T19:15:55.739Z,42.77
2023-05-02T19:18:23.247Z,42.47
2023-05-02T19:20:50.695Z,43.01
2023-05-02T19:23:20.544Z,43.01
2023-05-02T19:25:47.999Z,43.12
2023-05-02T19:28:16.864Z,42.31
2023-05-02T19:30:44.780Z,42.98
2023-05-02T19:33:11.947Z,42.58
2023-05-02T19:35:39.468Z,42.61
2023-05-02T19:38:06.530Z,42.89
2023-05-02T19:40:33.784Z,43.36
2023-05-02T19:43:00.905Z,43.69
2023-05-02T19:45:28.182Z,43.61
2023-05-02T19:47:55.114Z,43.85
2023-05-02T19:50:22.218Z,43.76
2023-05-02T19:52:50.312Z,43.76
2023-05-02T19:55:18.524Z,43.67
2023-05-02T19:57:45.757Z,42.96
2023-05-02T20:00:14.144Z,42.63
2023-05-02T20:02:41.758Z,43.03
2023-05-02T20:05:09.106Z,42.87
2023-05-02T20:07:36.281Z,42.83
2023-05-02T20:10:03.879Z,42.97
2023-05-02T20:12:31.304Z,43.32
2023-05-02T20:14:58.225Z,42.92
2023-05-02T20:17:25.734Z,42.76
2023-05-02T20:19:52.700Z,42.72
2023-05-02T20:22:20.042Z,42.89
2023-05-02T20:24:47.014Z,43.10
2023-05-02T20:27:14.014Z,43.42
2023-05-02T20:29:41.101Z,43.64
2023-05-02T20:32:08.432Z,43.78
2023-05-02T20:34:35.702Z,44.01
2023-05-02T20:37:06.392Z,44.01
2023-05-02T20:39:33.367Z,44.23
2023-05-02T20:42:00.281Z,44.50
2023-05-02T20:44:28.456Z,44.24
2023-05-02T20:46:55.549Z,44.90
2023-05-02T20:49:22.533Z,45.11
2023-05-02T20:51:50.289Z,44.74
2023-05-02T20:54:18.609Z,45.40
2023-05-02T20:56:45.494Z,45.17
2023-05-02T20:59:12.701Z,45.77
2023-05-02T21:01:39.756Z,45.52
2023-05-02T21:04:06.893Z,45.81
2023-05-02T21:06:34.069Z,46.13
2023-05-02T21:09:02.225Z,46.17
2023-05-02T21:11:29.412Z,46.00
2023-05-02T21:13:56.554Z,46.46
2023-05-02T21:16:23.563Z,46.86
2023-05-02T21:18:50.642Z,46.67
2023-05-02T21:21:17.687Z,46.98
2023-05-02T21:23:44.984Z,47.02
2023-05-02T21:26:11.872Z,47.06
2023-05-02T21:28:39.266Z,46.97
2023-05-02T21:31:07.196Z,47.42
2023-05-02T21:33:34.539Z,47.35
2023-05-02T21:36:01.503Z,47.78
2023-05-02T21:38:29.446Z,47.69
2023-05-02T21:40:56.370Z,47.69
2023-05-02T21:43:23.547Z,48.39
2023-05-02T21:45:50.617Z,48.52
2023-05-02T21:48:17.918Z,48.46
2023-05-02T21:50:45.210Z,48.48
2023-05-02T21:53:13.468Z,49.01
2023-05-02T21:55:41.157Z,48.68
2023-05-02T21:58:10.709Z,49.17
2023-05-02T22:00:38.505Z,49.02
2023-05-02T22:03:08.399Z,49.03
2023-05-02T22:05:35.997Z,48.85
2023-05-02T22:08:03.049Z,49.19
2023-05-02T22:10:30.216Z,48.73
2023-05-02T22:12:57.271Z,48.92
2023-05-02T22:15:24.477Z,49.18
2023-05-02T22:17:52.203Z,49.26
2023-05-02T22:20:19.197Z,49.10
2023-05-02T22:22:46.278Z,48.78
2023-05-02T22:25:13.579Z,49.09
2023-05-02T22:27:40.941Z,49.04
2023-05-02T22:30:09.389Z,48.46
2023-05-02T22:32:36.737Z,48.63
2023-05-02T22:35:06.958Z,48.81
2023-05-02T22:37:34.013Z,48.54
2023-05-02T22:40:01.487Z,48.40
2023-05-02T22:42:30.879Z,48.89
2023-05-02T22:44:57.745Z,48.13
2023-05-02T22:47:25.169Z,47.98
2023-05-02T22:49:52.717Z,48.36
2023-05-02T22:52:20.792Z,48.59
2023-05-02T22:54:48.078Z,48.51
2023-05-02T22:57:14.957Z,48.24
2023-05-02T22:59:42.008Z,48.31
2023-05-02T23:02:11.753Z,48.54
2023-05-02T23:04:38.791Z,48.00
2023-05-02T23:07:06.255Z,47.90
2023-05-02T23:09:33.272Z,47.75
2023-05-02T23:12:00.318Z,47.40
2023-05-02T23:14:27.393Z,47.15
2023-05-02T23:16:54.480Z,47.27
2023-05-02T23:19:21.448Z,46.99
2023-05-02T23:21:48.313Z,47.15
2023-05-02T23:24:15.503Z,47.23
2023-05-02T23:26:42.389Z,46.78
2023-05-02T23:29:09.490Z,46.92
2023-05-02T23:31:36.609Z,46.58
2023-05-02T23:34:03.900Z,46.30
2023-05-02T23:36:32.462Z,46.39
2023-05-02T23:39:01.999Z,46.89
2023-05-02T23:41:30.017Z,46.60
2023-05-02T23:43:57.142Z,46.76
2023-05-02T23:46:25.137Z,46.87
2023-05-02T23:48:52.948Z,46.69
2023-05-02T23:51:19.885Z,47.15
2023-05-02T23:53:47.057Z,46.51
2023-05-02T23:56:13.960Z,46.43
2023-05-02T23:58:41.015Z,46.25
